Time;durP1;ratioP1;P1;durP2;ratioP2;P2;SDS_P1;SDS_P2;PMS_P1;PMS_P2;Temp;Humidity;BMP_temperature;BMP_pressure;BME280_temperature;BME280_humidity;BME280_pressure;Samples;Min_cycle;Max_cycle;Signal;HPM_P1;HPM_P2
2021/06/27 00:03:21;;;;;;;7.57;6.75;;;29.50;59.90;;;;;;4752458;55;21006;-32
2021/06/27 00:08:21;;;;;;;7.20;6.50;;;29.50;59.90;;;;;;4757651;55;21497;-28
2021/06/27 00:13:23;;;;;;;7.53;6.78;;;29.50;60.00;;;;;;4836941;55;21563;-30
2021/06/27 00:18:26;;;;;;;7.05;6.30;;;29.50;59.90;;;;;;4759536;55;21009;-29
2021/06/27 00:23:30;;;;;;;7.12;6.53;;;29.50;59.80;;;;;;4799150;55;21033;-28
2021/06/27 00:28:31;;;;;;;7.25;6.55;;;29.50;60.10;;;;;;4775458;55;21612;-28
2021/06/27 00:33:32;;;;;;;7.20;6.53;;;29.50;60.00;;;;;;4738324;59;21005;-25
2021/06/27 00:38:34;;;;;;;7.45;6.53;;;29.50;59.90;;;;;;4750095;55;21073;-30
2021/06/27 00:43:35;;;;;;;8.00;6.93;;;29.50;60.00;;;;;;4750311;55;21006;-28
2021/06/27 00:48:36;;;;;;;7.20;6.40;;;29.50;59.90;;;;;;4788785;55;21509;-28
2021/06/27 00:53:37;;;;;;;7.00;6.30;;;29.50;59.80;;;;;;4765497;55;21105;-31
2021/06/27 00:58:38;;;;;;;6.62;6.03;;;29.50;59.90;;;;;;4778056;55;21436;-28
2021/06/27 01:03:39;;;;;;;7.07;6.28;;;29.50;59.90;;;;;;4793264;55;21006;-28
2021/06/27 01:08:39;;;;;;;6.95;6.35;;;29.50;59.90;;;;;;4827565;55;21093;-30
2021/06/27 01:13:42;;;;;;;6.93;6.25;;;29.50;59.80;;;;;;4816857;55;20990;-27
2021/06/27 01:18:43;;;;;;;6.68;6.07;;;29.50;59.90;;;;;;4784749;55;21006;-30
2021/06/27 01:23:44;;;;;;;7.55;6.55;;;29.50;59.70;;;;;;4771056;55;20974;-29
2021/06/27 01:28:45;;;;;;;6.70;6.10;;;29.50;59.70;;;;;;4738634;55;21005;-30
2021/06/27 01:33:49;;;;;;;6.65;5.95;;;29.50;59.90;;;;;;4749798;55;21053;-30
2021/06/27 01:43:57;;;;;;;7.12;6.43;;;29.50;59.80;;;;;;4739391;55;21141;-27
2021/06/27 01:48:58;;;;;;;6.80;6.12;;;29.50;59.50;;;;;;4750731;55;21153;-28
2021/06/27 01:53:59;;;;;;;6.57;5.97;;;29.50;59.70;;;;;;4740996;55;21520;-27
2021/06/27 01:59:03;;;;;;;6.90;6.22;;;29.40;59.80;;;;;;4786894;55;21572;-30
2021/06/27 02:04:06;;;;;;;6.53;5.97;;;29.50;59.70;;;;;;4747932;55;21121;-29
2021/06/27 02:09:12;;;;;;;6.80;6.12;;;29.40;59.80;;;;;;4770900;55;21117;-30
2021/06/27 02:14:13;;;;;;;6.72;6.03;;;29.40;59.40;;;;;;4770716;55;21010;-27
2021/06/27 02:19:14;;;;;;;6.50;5.90;;;29.50;59.70;;;;;;4746182;55;21037;-30
2021/06/27 02:24:15;;;;;;;6.40;5.80;;;29.40;59.70;;;;;;4747618;55;21029;-28
2021/06/27 02:29:16;;;;;;;6.75;6.15;;;29.40;59.70;;;;;;4771223;55;21073;-25
2021/06/27 02:34:19;;;;;;;7.95;5.60;;;29.50;59.70;;;;;;4763281;55;21081;-30
2021/06/27 02:39:19;;;;;;;6.30;5.70;;;29.40;59.50;;;;;;4752766;55;21058;-27
2021/06/27 02:44:20;;;;;;;5.97;5.45;;;29.40;59.80;;;;;;4794417;55;21077;-28
2021/06/27 02:49:23;;;;;;;6.12;5.60;;;29.40;59.50;;;;;;4770539;55;21069;-28
2021/06/27 02:54:24;;;;;;;5.90;5.40;;;29.40;59.60;;;;;;4743814;55;21599;-31
2021/06/27 02:59:25;;;;;;;6.78;5.30;;;29.40;59.60;;;;;;4738473;59;20997;-29
2021/06/27 03:04:25;;;;;;;6.07;5.43;;;29.50;59.70;;;;;;4739635;55;21022;-31
2021/06/27 03:09:26;;;;;;;6.25;5.65;;;29.40;59.30;;;;;;4787670;55;21529;-31
2021/06/27 03:14:27;;;;;;;5.93;5.40;;;29.40;59.70;;;;;;4864114;55;21014;-23
2021/06/27 03:19:28;;;;;;;5.47;4.97;;;29.40;59.40;;;;;;4738249;59;21018;-30
2021/06/27 03:24:29;;;;;;;5.90;5.40;;;29.40;59.30;;;;;;4738245;59;21023;-28
2021/06/27 03:29:30;;;;;;;6.12;5.53;;;29.40;59.40;;;;;;4759923;55;21710;-29
2021/06/27 03:34:31;;;;;;;5.57;5.07;;;29.40;59.40;;;;;;4796882;55;21465;-31
2021/06/27 03:39:32;;;;;;;5.47;4.72;;;29.40;59.50;;;;;;4738564;59;21002;-30
2021/06/27 03:44:33;;;;;;;5.62;5.12;;;29.40;59.30;;;;;;4747742;55;20986;-26
2021/06/27 03:49:33;;;;;;;5.78;5.22;;;29.40;59.20;;;;;;4760997;55;21129;-29
2021/06/27 03:54:34;;;;;;;5.43;4.93;;;29.40;59.00;;;;;;4807456;55;21066;-30
2021/06/27 03:59:35;;;;;;;5.55;5.15;;;29.40;59.20;;;;;;4748014;55;21002;-31
2021/06/27 04:04:36;;;;;;;5.22;4.82;;;29.40;59.20;;;;;;4738673;59;21001;-29
2021/06/27 04:09:37;;;;;;;5.07;4.68;;;29.40;59.00;;;;;;4749145;55;21089;-27
2021/06/27 04:14:37;;;;;;;5.53;5.03;;;29.40;59.00;;;;;;4750840;55;21473;-30
2021/06/27 04:19:38;;;;;;;5.95;5.25;;;29.30;58.80;;;;;;4751281;55;21010;-29
2021/06/27 04:24:39;;;;;;;6.18;5.00;;;29.40;58.80;;;;;;4751404;55;21026;-29
2021/06/27 04:29:40;;;;;;;5.50;5.00;;;29.30;58.50;;;;;;4779528;55;21485;-30
2021/06/27 04:34:41;;;;;;;5.72;5.12;;;29.40;58.70;;;;;;4776530;55;21077;-29
2021/06/27 04:39:42;;;;;;;5.15;4.72;;;29.30;58.40;;;;;;4774003;55;21017;-30
2021/06/27 04:44:43;;;;;;;5.18;4.72;;;29.30;58.30;;;;;;4748543;55;21002;-25
2021/06/27 04:49:43;;;;;;;5.82;5.32;;;29.40;58.30;;;;;;4765664;55;21002;-28
2021/06/27 04:54:44;;;;;;;5.75;5.00;;;29.30;58.40;;;;;;4779402;55;21089;-26
2021/06/27 04:59:45;;;;;;;5.93;5.43;;;29.30;58.20;;;;;;4749280;55;21006;-30
2021/06/27 05:04:46;;;;;;;5.60;5.00;;;29.30;58.10;;;;;;4754656;55;21049;-29
2021/06/27 05:09:46;;;;;;;5.57;5.07;;;29.40;58.30;;;;;;4742435;55;21066;-29
2021/06/27 05:14:47;;;;;;;5.72;5.22;;;29.30;58.30;;;;;;4762550;55;21475;-29
2021/06/27 05:19:48;;;;;;;6.05;5.45;;;29.30;58.20;;;;;;4756191;55;21038;-26
2021/06/27 05:24:49;;;;;;;5.57;5.07;;;29.30;58.20;;;;;;4753629;55;21070;-29
2021/06/27 05:29:50;;;;;;;5.22;4.72;;;29.30;58.10;;;;;;4749719;55;21073;-29
2021/06/27 05:34:50;;;;;;;5.50;4.97;;;29.30;58.10;;;;;;4757675;55;21152;-23
2021/06/27 05:39:51;;;;;;;5.18;4.68;;;29.30;58.10;;;;;;4803757;55;21085;-30
2021/06/27 05:44:52;;;;;;;4.93;4.43;;;29.30;58.00;;;;;;4804102;55;21002;-29
2021/06/27 05:49:54;;;;;;;5.80;5.15;;;29.30;58.00;;;;;;4769839;55;21026;-29
2021/06/27 05:54:55;;;;;;;5.82;5.25;;;29.30;58.00;;;;;;4744339;55;21021;-30
2021/06/27 05:59:56;;;;;;;5.55;5.05;;;29.30;58.00;;;;;;4754369;55;21057;-28
2021/06/27 06:04:56;;;;;;;5.90;5.37;;;29.30;57.50;;;;;;4750335;55;21122;-31
2021/06/27 06:09:57;;;;;;;6.43;5.18;;;29.30;57.90;;;;;;4743482;55;21117;-30
2021/06/27 06:14:58;;;;;;;5.75;5.22;;;29.30;57.90;;;;;;4755723;55;21611;-29
2021/06/27 06:19:59;;;;;;;6.12;5.40;;;29.30;58.10;;;;;;4738239;59;21081;-30
2021/06/27 06:24:59;;;;;;;5.62;5.07;;;29.30;58.00;;;;;;4738579;59;21066;-28
2021/06/27 06:30:00;;;;;;;6.12;5.37;;;29.30;57.90;;;;;;4781846;55;21109;-27
2021/06/27 06:35:01;;;;;;;6.00;5.43;;;29.30;57.80;;;;;;4760930;55;21583;-29
2021/06/27 06:40:03;;;;;;;6.87;5.68;;;29.30;58.00;;;;;;4756956;55;21081;-30
2021/06/27 06:45:06;;;;;;;6.78;5.93;;;29.30;58.00;;;;;;4739650;59;21077;-24
2021/06/27 06:50:09;;;;;;;6.22;5.62;;;29.30;57.80;;;;;;4744669;55;21029;-28
2021/06/27 06:55:11;;;;;;;7.95;6.22;;;29.30;58.00;;;;;;4750917;55;21007;-29
2021/06/27 07:00:13;;;;;;;6.55;5.95;;;29.30;57.80;;;;;;4776018;55;20983;-26
2021/06/27 07:05:14;;;;;;;6.35;5.75;;;29.30;58.00;;;;;;4873567;55;20985;-24
2021/06/27 07:10:15;;;;;;;6.95;6.25;;;29.30;58.00;;;;;;4746451;55;21166;-26
2021/06/27 07:15:16;;;;;;;8.45;6.03;;;29.30;57.90;;;;;;4748503;55;21002;-31
2021/06/27 07:20:17;;;;;;;7.03;6.32;;;29.30;57.90;;;;;;4751112;55;20982;-23
2021/06/27 07:25:18;;;;;;;7.85;6.43;;;29.30;57.80;;;;;;4748592;55;21072;-29
2021/06/27 07:30:19;;;;;;;7.05;6.35;;;29.30;57.90;;;;;;4741872;55;21539;-29
2021/06/27 07:35:20;;;;;;;8.52;7.10;;;29.30;57.90;;;;;;4737997;59;21101;-28
2021/06/27 07:40:21;;;;;;;7.35;6.55;;;29.30;57.90;;;;;;4748558;55;21146;-31
2021/06/27 07:45:22;;;;;;;7.57;6.78;;;29.30;57.90;;;;;;4794606;55;21035;-30
2021/06/27 07:50:23;;;;;;;7.20;6.50;;;29.30;57.80;;;;;;4793784;55;21508;-29
2021/06/27 07:55:24;;;;;;;7.40;6.70;;;29.30;57.80;;;;;;4738234;59;21033;-29
2021/06/27 08:00:25;;;;;;;7.80;6.60;;;29.30;57.80;;;;;;4775010;55;21536;-31
2021/06/27 08:05:29;;;;;;;8.43;7.28;;;29.30;57.80;;;;;;4738340;59;21469;-28
2021/06/27 08:10:30;;;;;;;7.78;6.95;;;29.30;57.80;;;;;;4738046;59;21624;-31
2021/06/27 08:15:31;;;;;;;7.72;6.93;;;29.30;57.80;;;;;;4745981;55;21069;-30
2021/06/27 08:20:32;;;;;;;7.90;7.10;;;29.30;57.70;;;;;;4771279;55;21002;-29
2021/06/27 08:25:33;;;;;;;8.05;7.25;;;29.30;57.70;;;;;;4774417;55;21010;-31
2021/06/27 08:30:34;;;;;;;8.32;7.43;;;29.30;57.80;;;;;;4744655;55;21520;-28
2021/06/27 08:35:36;;;;;;;7.97;7.18;;;29.30;57.80;;;;;;4743603;55;21071;-29
2021/06/27 08:40:37;;;;;;;8.20;7.25;;;29.30;57.70;;;;;;4745871;55;22373;-29
2021/06/27 08:45:52;;;;;;;8.07;7.28;;;29.30;57.70;;;;;;4738397;59;21046;-30
2021/06/27 08:50:54;;;;;;;8.80;7.65;;;29.30;57.70;;;;;;4767600;55;21492;-27
2021/06/27 08:56:08;;;;;;;8.65;7.20;;;29.30;57.80;;;;;;4782167;55;21050;-28
2021/06/27 09:01:14;;;;;;;8.52;7.18;;;29.30;57.70;;;;;;4774497;55;21568;-31
2021/06/27 09:07:28;;;;;;;8.43;7.00;;;29.30;57.70;;;;;;4756396;55;21076;-30
2021/06/27 09:13:03;;;;;;;9.63;7.80;;;29.30;57.90;;;;;;4783533;55;21476;-31
2021/06/27 09:18:22;;;;;;;8.70;7.85;;;29.30;57.60;;;;;;4750175;55;21015;-31
2021/06/27 09:23:43;;;;;;;8.32;7.53;;;29.30;57.60;;;;;;4745571;55;21077;-26
2021/06/27 09:28:48;;;;;;;8.80;7.90;;;29.30;57.60;;;;;;4743725;55;21065;-31
2021/06/27 09:33:58;;;;;;;8.80;7.90;;;29.30;57.60;;;;;;4757910;55;21477;-25
2021/06/27 09:39:08;;;;;;;8.07;7.25;;;29.30;57.60;;;;;;4788207;55;21488;-32
2021/06/27 09:44:13;;;;;;;9.25;8.00;;;29.30;57.60;;;;;;4764264;55;21081;-29
2021/06/27 09:49:19;;;;;;;9.30;7.70;;;29.40;57.60;;;;;;4766344;55;21065;-30
2021/06/27 09:54:21;;;;;;;;;;;29.30;57.50;;;;;;4757100;55;21054;-24
2021/06/27 09:59:32;;;;;;;9.32;7.72;;;29.30;57.60;;;;;;4762356;55;20464;-31
2021/06/27 10:04:34;;;;;;;10.32;8.27;;;29.30;57.50;;;;;;4766709;55;21564;-31
2021/06/27 10:09:37;;;;;;;8.73;7.72;;;29.30;57.60;;;;;;4748818;55;21155;-31
2021/06/27 10:15:16;;;;;;;8.80;7.90;;;29.40;57.60;;;;;;4782450;55;21097;-31
2021/06/27 10:20:17;;;;;;;9.50;7.93;;;29.30;57.60;;;;;;4757738;55;21081;-29
2021/06/27 10:25:21;;;;;;;10.50;8.27;;;29.30;57.60;;;;;;4788225;55;21069;-25
2021/06/27 10:30:22;;;;;;;9.30;7.65;;;29.30;57.60;;;;;;4737827;59;21014;-32
2021/06/27 10:35:22;;;;;;;8.50;7.47;;;29.30;57.60;;;;;;4737847;56;21010;-24
2021/06/27 10:40:23;;;;;;;9.02;8.13;;;29.30;57.70;;;;;;4758808;55;20995;-28
2021/06/27 10:48:56;;;;;;;9.07;7.90;;;29.30;57.60;;;;;;4761958;55;21013;-30
2021/06/27 10:54:16;;;;;;;8.13;7.32;;;29.30;57.60;;;;;;4745069;55;21857;-29
2021/06/27 11:00:18;;;;;;;8.65;7.75;;;29.30;57.60;;;;;;4750436;55;21536;-32
2021/06/27 11:07:56;;;;;;;9.10;8.00;;;29.30;57.70;;;;;;4770603;55;21017;-29
2021/06/27 11:13:16;;;;;;;9.60;8.18;;;29.40;57.70;;;;;;4757371;55;21010;-31
2021/06/27 11:25:31;;;;;;;8.68;7.78;;;29.40;57.80;;;;;;4747802;55;20986;-28
2021/06/27 11:30:36;;;;;;;9.10;8.20;;;29.40;57.80;;;;;;4769416;55;22164;-31
2021/06/27 11:35:43;;;;;;;8.18;7.37;;;29.40;57.80;;;;;;4799821;55;20994;-31
2021/06/27 11:40:47;;;;;;;8.32;7.53;;;29.40;57.80;;;;;;4738329;59;20990;-30
2021/06/27 11:45:49;;;;;;;9.25;8.35;;;29.40;57.80;;;;;;4801678;55;20994;-28
2021/06/27 11:50:52;;;;;;;8.50;7.70;;;29.40;57.80;;;;;;4766112;55;21017;-30
2021/06/27 11:56:08;;;;;;;8.52;7.53;;;29.40;57.80;;;;;;4747330;55;21476;-30
2021/06/27 12:01:11;;;;;;;7.85;7.15;;;29.40;57.80;;;;;;4770460;55;21098;-28
2021/06/27 12:06:12;;;;;;;8.40;7.60;;;29.40;57.80;;;;;;4778852;55;21575;-30
2021/06/27 12:11:13;;;;;;;8.27;7.47;;;29.40;57.70;;;;;;4744693;55;21512;-27
2021/06/27 12:16:14;;;;;;;9.32;7.47;;;29.40;57.70;;;;;;4761291;55;21571;-28
2021/06/27 12:21:18;;;;;;;8.73;7.82;;;29.40;57.80;;;;;;4762399;55;21065;-31
2021/06/27 12:26:20;;;;;;;7.80;7.10;;;29.40;57.80;;;;;;4784947;55;21086;-30
2021/06/27 12:31:32;;;;;;;8.27;7.47;;;29.40;58.40;;;;;;4738976;59;22585;-31
2021/06/27 12:36:47;;;;;;;7.87;7.18;;;29.40;57.90;;;;;;4753062;55;21528;-31
2021/06/27 12:41:48;;;;;;;8.30;7.40;;;29.40;57.90;;;;;;4789330;55;21002;-29
2021/06/27 12:46:53;;;;;;;8.07;7.30;;;29.40;57.90;;;;;;4789341;55;21010;-29
2021/06/27 12:52:05;;;;;;;8.33;7.50;;;29.40;57.90;;;;;;4763393;55;21062;-28
2021/06/27 12:57:12;;;;;;;8.45;7.45;;;29.40;57.90;;;;;;4821555;55;21037;-31
2021/06/27 13:02:35;;;;;;;8.65;7.85;;;29.40;58.00;;;;;;4760170;55;21793;-29
2021/06/27 13:07:39;;;;;;;8.38;7.53;;;29.40;58.00;;;;;;4787974;55;21133;-30
2021/06/27 13:13:16;;;;;;;8.50;7.70;;;29.40;58.00;;;;;;4778949;55;21576;-29
2021/06/27 13:18:20;;;;;;;8.15;7.35;;;29.40;58.00;;;;;;4750674;55;21456;-30
2021/06/27 13:23:26;;;;;;;8.35;7.37;;;29.40;58.00;;;;;;4738859;59;21584;-27
2021/06/27 13:28:38;;;;;;;;;;;29.40;58.00;;;;;;4741689;59;21587;-29
2021/06/27 13:33:51;;;;;;;7.87;7.18;;;29.40;58.00;;;;;;4755366;55;20080;-27
2021/06/27 13:38:54;;;;;;;8.23;7.28;;;29.40;58.10;;;;;;4752795;55;21052;-31
2021/06/27 13:43:56;;;;;;;8.07;7.30;;;29.40;58.10;;;;;;4751579;55;21002;-27
2021/06/27 13:48:57;;;;;;;8.23;7.43;;;29.40;58.30;;;;;;4738507;59;21094;-26
2021/06/27 13:53:58;;;;;;;7.47;6.72;;;29.40;58.20;;;;;;4738373;59;21481;-24
2021/06/27 13:59:00;;;;;;;7.43;6.82;;;29.40;58.20;;;;;;4741393;55;21130;-27
2021/06/27 14:04:04;;;;;;;7.65;6.85;;;29.40;58.20;;;;;;4752203;55;21503;-28
2021/06/27 14:09:05;;;;;;;7.75;7.05;;;29.40;58.30;;;;;;4808750;55;21567;-29
2021/06/27 14:14:06;;;;;;;7.70;7.00;;;29.40;58.20;;;;;;4738543;59;20994;-30
2021/06/27 14:19:06;;;;;;;8.50;7.70;;;29.40;58.30;;;;;;4740930;55;21014;-29
2021/06/27 14:24:07;;;;;;;7.75;6.80;;;29.40;58.30;;;;;;4742769;55;21002;-27
2021/06/27 14:29:08;;;;;;;8.25;7.45;;;29.40;58.30;;;;;;4738061;59;21698;-31
2021/06/27 14:34:09;;;;;;;7.93;7.22;;;29.40;58.90;;;;;;4747117;55;21074;-30
2021/06/27 14:39:10;;;;;;;7.60;6.90;;;29.40;58.30;;;;;;4738155;59;21488;-29
2021/06/27 14:44:11;;;;;;;7.72;6.93;;;29.40;59.10;;;;;;4739181;59;21002;-31
2021/06/27 14:49:12;;;;;;;7.75;7.05;;;29.40;58.40;;;;;;4806624;55;21018;-27
2021/06/27 14:54:13;;;;;;;8.32;7.53;;;29.40;58.30;;;;;;4744701;55;21089;-27
2021/06/27 14:59:15;;;;;;;7.80;7.10;;;29.40;58.30;;;;;;4751765;55;21059;-29
2021/06/27 15:04:16;;;;;;;7.40;6.70;;;29.40;58.30;;;;;;4760341;55;21018;-30
2021/06/27 15:09:17;;;;;;;7.40;6.80;;;29.40;58.40;;;;;;4746557;55;21037;-29
2021/06/27 15:14:18;;;;;;;8.13;7.32;;;29.40;58.40;;;;;;4809908;55;20978;-28
2021/06/27 15:19:19;;;;;;;7.87;7.07;;;29.40;58.40;;;;;;4786766;55;21057;-28
2021/06/27 15:24:20;;;;;;;7.22;6.53;;;29.40;58.40;;;;;;4741926;55;21058;-26
2021/06/27 15:29:21;;;;;;;7.45;6.75;;;29.50;58.50;;;;;;4758377;55;21035;-29
2021/06/27 15:34:24;;;;;;;7.00;6.40;;;29.40;58.40;;;;;;4760278;55;21493;-28
2021/06/27 15:39:25;;;;;;;7.75;7.05;;;29.40;58.40;;;;;;4823482;55;21619;-30
2021/06/27 15:44:26;;;;;;;8.05;6.82;;;29.40;58.40;;;;;;4781659;55;21002;-33
2021/06/27 15:49:27;;;;;;;7.93;7.22;;;29.40;58.50;;;;;;4760038;55;21022;-30
2021/06/27 15:54:28;;;;;;;7.43;6.82;;;29.40;58.40;;;;;;4739854;55;21042;-30
2021/06/27 15:59:28;;;;;;;7.30;6.70;;;29.40;58.50;;;;;;4757775;55;21050;-29
2021/06/27 16:04:29;;;;;;;7.65;6.97;;;29.40;58.50;;;;;;4759696;55;21053;-22
2021/06/27 16:09:30;;;;;;;7.87;7.18;;;29.50;58.50;;;;;;4743129;55;21098;-29
2021/06/27 16:14:31;;;;;;;7.30;6.70;;;29.50;58.50;;;;;;4738045;59;21006;-30
2021/06/27 16:19:32;;;;;;;7.60;6.90;;;29.50;58.50;;;;;;4760375;55;21038;-28
2021/06/27 16:24:33;;;;;;;8.18;7.35;;;29.50;58.60;;;;;;4768959;55;21009;-26
2021/06/27 16:29:34;;;;;;;7.37;6.68;;;29.50;58.60;;;;;;4784602;55;21069;-28
2021/06/27 16:34:35;;;;;;;7.45;6.78;;;29.50;58.60;;;;;;4760970;55;20994;-28
2021/06/27 16:39:36;;;;;;;7.15;6.55;;;29.50;58.60;;;;;;4751246;55;21053;-25
2021/06/27 16:44:37;;;;;;;7.70;7.00;;;29.50;58.60;;;;;;4740925;55;21136;-26
2021/06/27 16:49:37;;;;;;;7.75;7.03;;;29.50;58.60;;;;;;4792841;55;21070;-23
2021/06/27 16:54:38;;;;;;;8.48;7.45;;;29.50;58.60;;;;;;4763915;55;21005;-24
2021/06/27 16:59:39;;;;;;;8.30;7.50;;;29.50;58.60;;;;;;4763020;55;21126;-32
2021/06/27 17:04:40;;;;;;;7.72;7.03;;;29.50;58.60;;;;;;4791306;55;20995;-27
2021/06/27 17:09:41;;;;;;;8.02;7.32;;;29.50;58.50;;;;;;4737831;59;21089;-27
2021/06/27 17:14:42;;;;;;;8.07;7.37;;;29.50;58.60;;;;;;4763885;55;21005;-30
2021/06/27 17:19:43;;;;;;;8.73;7.93;;;29.50;58.60;;;;;;4753557;55;21535;-28
2021/06/27 17:24:44;;;;;;;8.10;7.40;;;29.50;58.60;;;;;;4738682;59;20997;-29
2021/06/27 17:29:44;;;;;;;8.02;7.32;;;29.50;58.60;;;;;;4773445;55;21022;-26
2021/06/27 17:34:45;;;;;;;8.50;7.78;;;29.50;58.60;;;;;;4760518;55;21070;-26
2021/06/27 17:39:46;;;;;;;8.93;8.13;;;29.50;58.60;;;;;;4761644;55;21010;-29
2021/06/27 17:44:47;;;;;;;8.65;7.85;;;29.50;58.50;;;;;;4766730;55;21521;-27
2021/06/27 17:49:50;;;;;;;8.65;7.87;;;29.50;58.50;;;;;;4760097;55;21102;-25
2021/06/27 17:54:52;;;;;;;8.15;7.45;;;29.50;58.50;;;;;;4742213;55;20993;-28
2021/06/27 17:59:53;;;;;;;8.73;7.93;;;29.50;58.40;;;;;;4737971;59;22646;-31
2021/06/27 18:04:53;;;;;;;8.70;7.90;;;29.50;58.30;;;;;;4739264;55;21014;-29
2021/06/27 18:09:58;;;;;;;8.27;7.55;;;29.50;58.30;;;;;;4774839;55;21591;-27
2021/06/27 18:15:00;;;;;;;8.32;7.62;;;29.50;58.20;;;;;;4762076;55;21460;-29
2021/06/27 18:20:03;;;;;;;8.52;7.72;;;29.50;58.10;;;;;;4775016;55;21562;-32
2021/06/27 18:25:06;;;;;;;8.23;7.53;;;29.50;58.10;;;;;;4749136;55;21566;-28
2021/06/27 18:30:08;;;;;;;9.57;8.68;;;29.50;58.00;;;;;;4746529;55;21042;-28
2021/06/27 18:35:09;;;;;;;8.35;7.60;;;29.50;57.90;;;;;;4744845;55;20986;-27
2021/06/27 18:40:11;;;;;;;8.20;7.50;;;29.50;57.90;;;;;;4744743;55;21042;-29
2021/06/27 18:45:13;;;;;;;9.07;8.25;;;29.50;57.90;;;;;;4743755;55;21087;-30
2021/06/27 18:50:14;;;;;;;9.07;8.18;;;29.50;58.40;;;;;;4743056;55;21051;-27
2021/06/27 18:55:15;;;;;;;8.30;7.55;;;29.50;57.70;;;;;;4742450;55;21492;-30
2021/06/27 19:00:16;;;;;;;8.07;7.22;;;29.50;57.80;;;;;;4774576;55;21001;-30
2021/06/27 19:05:17;;;;;;;8.68;7.87;;;29.50;57.70;;;;;;4740327;55;20974;-30
2021/06/27 19:10:19;;;;;;;8.20;7.40;;;29.50;57.60;;;;;;4741539;55;21038;-30
2021/06/27 19:15:20;;;;;;;8.75;7.90;;;29.50;57.70;;;;;;4741452;55;21041;-30
2021/06/27 19:20:22;;;;;;;8.30;7.50;;;29.50;57.60;;;;;;4739054;55;21013;-31
2021/06/27 19:25:24;;;;;;;7.37;6.78;;;29.50;57.50;;;;;;4805748;55;21500;-28
2021/06/27 19:30:27;;;;;;;8.18;7.40;;;29.50;57.70;;;;;;4776904;55;21584;-28
2021/06/27 19:35:28;;;;;;;7.93;7.22;;;29.50;57.60;;;;;;4755781;55;21041;-27
2021/06/27 19:40:29;;;;;;;8.13;7.32;;;29.50;57.50;;;;;;4775860;55;21491;-28
2021/06/27 19:45:30;;;;;;;7.87;7.18;;;29.50;57.70;;;;;;4741914;55;21050;-23
2021/06/27 19:50:31;;;;;;;8.15;7.35;;;29.50;57.60;;;;;;4741022;55;21013;-28
2021/06/27 19:55:32;;;;;;;7.82;7.12;;;29.50;57.70;;;;;;4762763;55;21030;-27
2021/06/27 20:00:36;;;;;;;8.32;7.53;;;29.50;57.50;;;;;;4762565;55;21077;-26
2021/06/27 20:05:37;;;;;;;8.38;7.57;;;29.40;57.30;;;;;;4738092;59;21050;-31
2021/06/27 20:10:39;;;;;;;7.90;7.10;;;29.40;57.50;;;;;;4744863;55;21053;-24
2021/06/27 20:15:40;;;;;;;8.27;7.47;;;29.40;57.40;;;;;;4738294;59;21094;-31
2021/06/27 20:20:41;;;;;;;8.18;7.37;;;29.40;57.60;;;;;;4752533;55;22162;-30
2021/06/27 20:25:45;;;;;;;8.10;7.30;;;29.40;57.60;;;;;;4738660;55;21021;-27
2021/06/27 20:30:46;;;;;;;8.00;7.15;;;29.40;57.40;;;;;;4756106;55;21132;-31
2021/06/27 20:35:47;;;;;;;7.87;7.15;;;29.40;57.30;;;;;;4745698;55;20983;-25
2021/06/27 20:40:48;;;;;;;7.93;7.22;;;29.40;57.30;;;;;;4738166;59;21003;-31
2021/06/27 20:45:50;;;;;;;7.07;6.37;;;29.40;57.30;;;;;;4771781;55;21010;-26
2021/06/27 20:50:51;;;;;;;6.85;6.25;;;29.40;57.20;;;;;;4775377;55;21580;-29
2021/06/27 20:55:53;;;;;;;6.85;6.25;;;29.40;57.50;;;;;;4747118;55;21018;-27
2021/06/27 21:00:54;;;;;;;7.93;7.22;;;29.40;57.20;;;;;;4780055;55;21464;-31
2021/06/27 21:05:54;;;;;;;7.55;6.82;;;29.40;57.20;;;;;;4746860;55;20994;-30
2021/06/27 21:10:55;;;;;;;7.00;6.40;;;29.40;57.30;;;;;;4801319;55;21098;-25
2021/06/27 21:15:57;;;;;;;7.60;6.90;;;29.40;57.20;;;;;;4752135;55;20974;-29
2021/06/27 21:20:57;;;;;;;7.72;6.78;;;29.40;57.10;;;;;;4835667;55;21025;-30
2021/06/27 21:25:58;;;;;;;7.28;6.68;;;29.40;57.00;;;;;;4763060;55;21014;-31
2021/06/27 21:30:59;;;;;;;7.10;6.40;;;29.40;57.30;;;;;;4755162;55;21504;-29
2021/06/27 21:36:00;;;;;;;7.40;6.70;;;29.40;57.40;;;;;;4752523;55;21575;-30
2021/06/27 21:41:01;;;;;;;7.50;6.70;;;29.40;57.40;;;;;;4746967;55;21140;-26
2021/06/27 21:46:02;;;;;;;6.80;6.15;;;29.40;57.50;;;;;;4753768;55;21473;-29
2021/06/27 21:51:03;;;;;;;7.00;6.40;;;29.40;57.40;;;;;;4748974;55;21041;-29
2021/06/27 21:56:07;;;;;;;6.80;6.10;;;29.40;57.50;;;;;;4738341;59;21073;-30
2021/06/27 22:01:10;;;;;;;6.72;6.12;;;29.40;57.60;;;;;;4752111;55;21086;-27
2021/06/27 22:06:12;;;;;;;6.97;6.28;;;29.40;57.70;;;;;;4770605;55;20993;-29
2021/06/27 22:11:14;;;;;;;6.80;6.10;;;29.40;57.70;;;;;;4737626;59;21500;-28
2021/06/27 22:16:17;;;;;;;7.40;6.70;;;29.40;57.70;;;;;;4748706;55;21488;-27
2021/06/27 22:21:18;;;;;;;6.82;6.22;;;29.40;57.70;;;;;;4765820;55;21512;-27
2021/06/27 22:26:19;;;;;;;7.20;6.60;;;29.40;57.80;;;;;;4750694;55;21046;-30
2021/06/27 22:31:20;;;;;;;6.70;6.10;;;29.40;57.70;;;;;;4737643;59;21567;-27
2021/06/27 22:36:21;;;;;;;6.57;5.97;;;29.40;57.70;;;;;;4759652;55;21010;-31
2021/06/27 22:41:23;;;;;;;6.60;6.00;;;29.40;57.80;;;;;;4740646;55;21082;-31
2021/06/27 22:46:24;;;;;;;6.95;6.25;;;29.50;57.80;;;;;;4738626;59;21142;-25
2021/06/27 22:51:25;;;;;;;6.68;6.07;;;29.40;57.70;;;;;;4737430;59;21519;-29
2021/06/27 22:56:26;;;;;;;6.60;6.00;;;29.40;57.90;;;;;;4749797;55;21029;-30
2021/06/27 23:01:29;;;;;;;7.22;6.53;;;29.40;57.80;;;;;;4810304;55;21453;-28
2021/06/27 23:06:30;;;;;;;6.55;5.97;;;29.40;57.80;;;;;;4764682;55;21512;-30
2021/06/27 23:11:30;;;;;;;6.90;5.90;;;29.40;58.00;;;;;;4737497;59;21022;-31
2021/06/27 23:16:31;;;;;;;6.40;5.80;;;29.40;57.90;;;;;;4788877;55;21051;-31
2021/06/27 23:21:32;;;;;;;6.10;5.60;;;29.40;58.10;;;;;;4776486;55;21448;-31
2021/06/27 23:26:34;;;;;;;6.72;6.12;;;29.40;58.10;;;;;;4790472;55;20994;-29
2021/06/27 23:31:35;;;;;;;6.10;5.53;;;29.40;57.90;;;;;;4758763;55;22189;-30
2021/06/27 23:36:36;;;;;;;6.50;5.82;;;29.40;58.10;;;;;;4747940;55;21123;-27
2021/06/27 23:41:36;;;;;;;6.55;5.95;;;29.40;58.10;;;;;;4772869;55;20990;-29
2021/06/27 23:46:37;;;;;;;6.12;5.62;;;29.40;58.10;;;;;;4748895;55;21041;-28
2021/06/27 23:51:38;;;;;;;6.22;5.65;;;29.40;58.10;;;;;;4757255;55;21037;-31
2021/06/27 23:56:39;;;;;;;6.43;5.82;;;29.40;58.20;;;;;;4738215;55;21029;-29
